createdAt,value
2022-12-20T00:01:32.528Z,54.83
2022-12-20T00:04:03.454Z,85.15
2022-12-20T00:06:31.496Z,61.08
2022-12-20T00:09:01.973Z,69.18
2022-12-20T00:11:30.357Z,65.15
2022-12-20T00:13:59.033Z,60.88
2022-12-20T00:16:31.045Z,60.08
2022-12-20T00:19:01.369Z,47.60
2022-12-20T00:21:30.077Z,49.08
2022-12-20T00:23:58.582Z,51.22
2022-12-20T00:26:29.748Z,57.42
2022-12-20T00:28:58.169Z,59.97
2022-12-20T00:31:27.834Z,43.47
2022-12-20T00:33:57.375Z,45.67
2022-12-20T00:36:28.298Z,83.68
2022-12-20T00:38:59.917Z,65.22
2022-12-20T00:41:30.027Z,67.35
2022-12-20T00:43:58.120Z,53.00
2022-12-20T00:46:26.786Z,51.47
2022-12-20T00:48:56.700Z,50.42
2022-12-20T00:51:27.161Z,49.42
2022-12-20T00:53:55.544Z,42.53
2022-12-20T00:56:23.545Z,44.67
2022-12-20T00:58:54.721Z,51.15
2022-12-20T01:01:28.808Z,40.53
2022-12-20T01:03:56.813Z,52.50
2022-12-20T01:06:26.150Z,49.33
2022-12-20T01:08:55.797Z,55.72
2022-12-20T01:11:26.754Z,42.62
2022-12-20T01:13:57.583Z,43.25
2022-12-20T01:16:31.085Z,63.75
2022-12-20T01:18:58.841Z,76.20
2022-12-20T01:21:27.587Z,50.05
2022-12-20T01:23:56.658Z,55.90
2022-12-20T01:26:27.204Z,52.40
2022-12-20T01:28:57.352Z,43.10
2022-12-20T01:31:25.541Z,50.58
2022-12-20T01:33:53.803Z,49.10
2022-12-20T01:36:26.254Z,32.08
2022-12-20T01:39:02.051Z,41.30
2022-12-20T01:41:31.735Z,37.70
2022-12-20T01:44:02.507Z,31.20
2022-12-20T01:46:35.377Z,33.72
2022-12-20T01:49:23.652Z,34.97
2022-12-20T01:51:53.914Z,31.08
2022-12-20T01:54:27.205Z,33.75
2022-12-20T01:57:00.583Z,34.97
2022-12-20T01:59:29.604Z,40.85
2022-12-20T02:02:03.648Z,33.95
2022-12-20T02:04:31.815Z,45.03
2022-12-20T02:07:00.400Z,34.20
2022-12-20T02:09:28.823Z,36.38
2022-12-20T02:12:18.704Z,54.38
2022-12-20T02:15:14.390Z,34.05
2022-12-20T02:17:50.027Z,76.57
2022-12-20T02:20:47.987Z,50.67
2022-12-20T02:23:47.312Z,58.80
2022-12-20T02:26:50.334Z,54.40
2022-12-20T02:29:28.781Z,56.63
2022-12-20T02:32:06.276Z,48.92
2022-12-20T02:34:38.627Z,44.50
2022-12-20T02:37:06.718Z,47.30
2022-12-20T02:39:37.931Z,46.50
2022-12-20T02:42:11.675Z,41.63
2022-12-20T02:45:04.499Z,41.60
2022-12-20T02:47:49.194Z,44.67
2022-12-20T02:50:28.148Z,47.90
2022-12-20T02:52:56.442Z,44.42
2022-12-20T02:55:33.125Z,41.13
2022-12-20T02:58:17.982Z,54.88
2022-12-20T03:00:48.817Z,51.50
2022-12-20T03:03:25.925Z,41.55
2022-12-20T03:05:57.143Z,51.42
2022-12-20T03:08:26.098Z,58.55
2022-12-20T03:10:55.176Z,52.03
2022-12-20T03:13:24.997Z,64.57
2022-12-20T03:15:52.907Z,55.47
2022-12-20T03:18:20.659Z,50.47
2022-12-20T03:20:48.397Z,68.30
2022-12-20T03:23:16.094Z,68.22
2022-12-20T03:25:43.860Z,47.90
2022-12-20T03:28:11.994Z,62.92
2022-12-20T03:30:40.106Z,49.15
2022-12-20T03:33:08.490Z,70.65
2022-12-20T03:35:36.213Z,60.78
2022-12-20T03:38:03.926Z,46.97
2022-12-20T03:40:31.955Z,52.40
2022-12-20T03:42:59.814Z,37.72
2022-12-20T03:45:27.584Z,58.35
2022-12-20T03:47:55.361Z,64.07
2022-12-20T03:50:23.072Z,41.33
2022-12-20T03:52:51.074Z,56.50
2022-12-20T03:55:18.985Z,64.45
2022-12-20T03:57:46.624Z,63.60
2022-12-20T04:00:15.194Z,47.58
2022-12-20T04:02:43.213Z,56.15
2022-12-20T04:05:11.028Z,51.95
2022-12-20T04:07:38.762Z,55.72
2022-12-20T04:10:07.212Z,62.08
2022-12-20T04:12:34.863Z,49.80
2022-12-20T04:15:02.630Z,51.25
2022-12-20T04:17:30.384Z,71.82
2022-12-20T04:19:58.019Z,99.15
2022-12-20T04:22:25.783Z,66.05
2022-12-20T04:24:53.496Z,65.10
2022-12-20T04:27:21.559Z,91.25
2022-12-20T04:29:49.239Z,55.53
2022-12-20T04:32:16.945Z,59.60
2022-12-20T04:34:44.625Z,79.97
2022-12-20T04:37:12.303Z,67.12
2022-12-20T04:39:39.944Z,49.33
2022-12-20T04:42:07.700Z,63.60
2022-12-20T04:44:35.423Z,47.38
2022-12-20T04:47:03.450Z,58.17
2022-12-20T04:49:31.197Z,52.05
2022-12-20T04:52:18.826Z,53.67
2022-12-20T04:54:47.622Z,76.80
2022-12-20T04:57:15.702Z,48.63
2022-12-20T04:59:43.543Z,48.17
2022-12-20T05:02:11.338Z,38.05
2022-12-20T05:04:39.043Z,43.90
2022-12-20T05:07:06.715Z,44.15
2022-12-20T05:09:34.381Z,39.13
2022-12-20T05:12:02.091Z,43.63
2022-12-20T05:14:29.700Z,42.15
2022-12-20T05:16:57.331Z,46.45
2022-12-20T05:19:25.058Z,46.70
2022-12-20T05:22:11.441Z,42.38
2022-12-20T05:24:57.699Z,44.47
2022-12-20T05:27:25.354Z,48.08
2022-12-20T05:29:53.017Z,44.90
2022-12-20T05:32:20.662Z,41.65
2022-12-20T05:34:48.393Z,42.58
2022-12-20T05:37:16.065Z,35.22
2022-12-20T05:39:43.700Z,48.33
2022-12-20T05:42:11.399Z,37.47
2022-12-20T05:44:39.202Z,42.00
2022-12-20T05:47:07.005Z,40.58
2022-12-20T05:49:35.702Z,35.05
2022-12-20T05:52:04.584Z,46.42
2022-12-20T05:54:32.351Z,39.92
2022-12-20T05:57:00.001Z,47.00
2022-12-20T05:59:27.730Z,47.08
2022-12-20T06:01:56.057Z,54.80
2022-12-20T06:04:24.048Z,42.40
2022-12-20T06:06:51.791Z,50.88
2022-12-20T06:09:19.773Z,48.08
2022-12-20T06:11:48.673Z,46.53
2022-12-20T06:14:16.366Z,46.25
2022-12-20T06:16:44.147Z,51.13
2022-12-20T06:19:16.129Z,59.03
2022-12-20T06:21:48.856Z,53.05
2022-12-20T06:24:16.834Z,80.78
2022-12-20T06:26:44.653Z,68.45
2022-12-20T06:29:15.322Z,60.97
2022-12-20T06:31:43.441Z,57.00
2022-12-20T06:34:11.235Z,101.22
2022-12-20T06:36:38.982Z,68.32
2022-12-20T06:39:09.818Z,64.68
2022-12-20T06:41:38.500Z,95.30
2022-12-20T06:44:06.326Z,58.85
2022-12-20T06:46:34.578Z,55.35
2022-12-20T06:49:02.375Z,48.70
2022-12-20T06:51:30.068Z,55.83
2022-12-20T06:53:57.807Z,55.03
2022-12-20T06:56:25.509Z,62.65
2022-12-20T06:58:55.902Z,55.92
2022-12-20T07:01:23.737Z,47.10
2022-12-20T07:03:51.766Z,55.38
2022-12-20T07:06:19.550Z,61.78
2022-12-20T07:08:47.304Z,59.33
2022-12-20T07:11:15.025Z,50.53
2022-12-20T07:13:42.857Z,53.83
2022-12-20T07:16:11.344Z,47.08
2022-12-20T07:18:39.094Z,61.53
2022-12-20T07:21:07.496Z,60.33
2022-12-20T07:23:35.340Z,59.50
2022-12-20T07:26:04.941Z,48.55
2022-12-20T07:28:32.806Z,61.30
2022-12-20T07:31:04.494Z,50.70
2022-12-20T07:33:32.789Z,50.05
2022-12-20T07:36:09.273Z,53.55
2022-12-20T07:38:37.160Z,45.35
2022-12-20T07:41:12.723Z,41.95
2022-12-20T07:43:40.790Z,43.45
2022-12-20T07:46:09.703Z,54.63
2022-12-20T07:48:37.533Z,43.05
2022-12-20T07:51:16.103Z,44.30
2022-12-20T07:53:49.707Z,39.75
2022-12-20T07:56:19.427Z,33.33
2022-12-20T07:58:47.196Z,40.80
2022-12-20T08:01:15.599Z,36.78
2022-12-20T08:03:50.814Z,46.17
2022-12-20T08:06:19.869Z,35.38
2022-12-20T08:08:56.721Z,39.97
2022-12-20T08:11:25.806Z,38.80
2022-12-20T08:13:57.832Z,33.05
2022-12-20T08:16:27.042Z,39.75
2022-12-20T08:18:54.737Z,40.05
2022-12-20T08:21:22.430Z,42.13
2022-12-20T08:23:50.085Z,39.67
2022-12-20T08:26:18.673Z,41.00
2022-12-20T08:28:46.457Z,44.95
2022-12-20T08:31:14.456Z,41.05
2022-12-20T08:33:43.764Z,44.90
2022-12-20T08:36:13.795Z,43.75
2022-12-20T08:38:42.292Z,47.85
2022-12-20T08:41:15.129Z,39.90
2022-12-20T08:43:43.791Z,50.83
2022-12-20T08:46:13.533Z,39.40
2022-12-20T08:48:41.752Z,37.58
2022-12-20T08:51:11.530Z,43.50
2022-12-20T08:53:40.374Z,42.90
2022-12-20T08:56:16.925Z,47.55
2022-12-20T08:58:45.816Z,46.67
2022-12-20T09:01:16.195Z,44.67
2022-12-20T09:03:45.059Z,43.95
2022-12-20T09:06:16.893Z,51.95
2022-12-20T09:08:46.867Z,50.58
2022-12-20T09:11:17.980Z,46.33
2022-12-20T09:13:48.002Z,44.55
2022-12-20T09:16:18.423Z,43.95
2022-12-20T09:18:50.219Z,44.28
2022-12-20T09:21:18.369Z,52.40
2022-12-20T09:23:46.444Z,44.20
2022-12-20T09:26:16.668Z,42.70
2022-12-20T09:28:45.795Z,51.58
2022-12-20T09:31:15.806Z,46.37
2022-12-20T09:33:43.809Z,48.60
2022-12-20T09:36:16.678Z,47.85
2022-12-20T09:38:45.152Z,50.85
2022-12-20T09:41:26.516Z,49.97
2022-12-20T09:43:54.702Z,52.45
2022-12-20T09:46:23.994Z,48.33
2022-12-20T09:48:53.201Z,45.78
2022-12-20T09:51:32.766Z,50.70
2022-12-20T09:54:00.491Z,51.13
2022-12-20T09:56:32.800Z,55.70
2022-12-20T09:59:07.186Z,43.75
2022-12-20T10:01:40.071Z,51.58
2022-12-20T10:04:14.807Z,51.25
2022-12-20T10:07:07.782Z,53.13
2022-12-20T10:09:49.596Z,55.75
2022-12-20T10:12:26.862Z,47.92
2022-12-20T10:14:57.310Z,53.15
2022-12-20T10:17:51.445Z,52.62
2022-12-20T10:20:43.041Z,60.75
2022-12-20T10:23:33.036Z,44.85
2022-12-20T10:26:02.112Z,44.40
2022-12-20T10:28:32.881Z,46.85
2022-12-20T10:31:08.052Z,43.90
2022-12-20T10:33:36.044Z,40.78
2022-12-20T10:36:24.031Z,49.78
2022-12-20T10:38:57.251Z,44.70
2022-12-20T10:41:28.914Z,55.30
2022-12-20T10:44:07.161Z,43.60
2022-12-20T10:46:46.543Z,41.63
2022-12-20T10:49:35.523Z,40.92
2022-12-20T10:52:14.429Z,35.58
2022-12-20T10:54:44.617Z,32.35
2022-12-20T10:57:24.977Z,37.33
2022-12-20T11:00:01.468Z,38.13
2022-12-20T11:02:40.953Z,36.42
2022-12-20T11:05:12.977Z,39.75
2022-12-20T11:08:34.739Z,33.85
2022-12-20T11:11:17.423Z,29.92
2022-12-20T11:13:46.962Z,33.00
2022-12-20T11:16:27.929Z,32.47
2022-12-20T11:19:20.285Z,30.98
2022-12-20T11:22:16.992Z,29.55
2022-12-20T11:24:54.728Z,24.70
2022-12-20T11:27:41.479Z,29.40
2022-12-20T11:30:26.545Z,29.15
2022-12-20T11:33:25.671Z,33.67
2022-12-20T11:36:22.271Z,40.50
2022-12-20T11:39:27.542Z,38.30
2022-12-20T11:42:23.001Z,34.20
2022-12-20T11:45:14.892Z,36.30
2022-12-20T11:48:10.940Z,38.15
2022-12-20T11:51:07.584Z,35.47
2022-12-20T11:53:48.613Z,33.78
2022-12-20T11:56:29.237Z,38.53
2022-12-20T11:59:06.767Z,36.17
2022-12-20T12:01:45.000Z,43.58
2022-12-20T12:04:18.176Z,43.40
2022-12-20T12:07:00.535Z,36.80
2022-12-20T12:09:37.360Z,35.17
2022-12-20T12:12:19.738Z,36.13
2022-12-20T12:15:02.832Z,40.83
2022-12-20T12:17:48.268Z,34.50
2022-12-20T12:20:24.821Z,35.78
2022-12-20T12:22:57.356Z,39.30
2022-12-20T12:25:25.310Z,43.65
2022-12-20T12:27:53.099Z,35.50
2022-12-20T12:30:21.019Z,39.63
2022-12-20T12:33:01.947Z,39.25
2022-12-20T12:36:24.591Z,39.17
2022-12-20T12:39:13.957Z,35.70
2022-12-20T12:42:02.807Z,34.15
2022-12-20T12:45:02.901Z,37.60
2022-12-20T12:48:09.241Z,38.95
2022-12-20T12:50:43.650Z,33.25
2022-12-20T12:53:19.709Z,38.35
2022-12-20T12:55:52.120Z,37.30
2022-12-20T12:58:26.070Z,35.60
2022-12-20T13:01:13.135Z,35.63
2022-12-20T13:03:41.029Z,38.33
2022-12-20T13:06:27.304Z,31.45
2022-12-20T13:08:58.034Z,35.92
2022-12-20T13:11:32.911Z,36.28
2022-12-20T13:14:26.347Z,38.85
2022-12-20T13:17:16.214Z,36.22
2022-12-20T13:19:56.269Z,34.03
2022-12-20T13:22:27.812Z,35.53
2022-12-20T13:25:00.484Z,35.08
2022-12-20T13:27:38.239Z,35.95
2022-12-20T13:30:08.558Z,35.55
2022-12-20T13:32:48.256Z,33.35
2022-12-20T13:35:28.901Z,35.35
2022-12-20T13:38:06.005Z,34.08
2022-12-20T13:40:49.891Z,33.58
2022-12-20T13:43:20.492Z,32.40
2022-12-20T13:45:58.709Z,32.28
2022-12-20T13:48:50.936Z,32.08
2022-12-20T13:51:21.501Z,34.97
2022-12-20T13:54:04.312Z,32.35
2022-12-20T13:56:39.681Z,32.97
2022-12-20T13:59:20.197Z,32.72
2022-12-20T14:01:50.701Z,30.50
2022-12-20T14:04:20.239Z,31.90
2022-12-20T14:07:01.424Z,30.52
2022-12-20T14:09:37.769Z,28.33
2022-12-20T14:12:08.085Z,31.27
2022-12-20T14:14:54.063Z,30.60
2022-12-20T14:17:29.737Z,30.27
2022-12-20T14:20:14.233Z,34.17
2022-12-20T14:22:53.300Z,33.85
2022-12-20T14:25:38.572Z,32.72
2022-12-20T14:28:07.246Z,31.80
2022-12-20T14:30:44.424Z,34.60
2022-12-20T14:33:26.290Z,32.80
2022-12-20T14:35:54.080Z,29.87
2022-12-20T14:38:32.268Z,36.33
2022-12-20T14:41:00.121Z,33.33
2022-12-20T14:43:33.727Z,34.42
2022-12-20T14:46:15.243Z,31.42
2022-12-20T14:48:43.037Z,28.98
2022-12-20T14:51:11.250Z,29.25
2022-12-20T14:53:41.329Z,29.45
2022-12-20T14:56:17.516Z,27.05
2022-12-20T14:58:45.269Z,27.58
2022-12-20T15:01:28.832Z,23.98
2022-12-20T15:03:59.035Z,22.67
2022-12-20T15:06:44.648Z,25.85
2022-12-20T15:09:12.734Z,28.65
2022-12-20T15:11:42.385Z,25.40
2022-12-20T15:14:35.162Z,27.20
2022-12-20T15:17:03.987Z,26.33
2022-12-20T15:19:36.244Z,25.10
2022-12-20T15:22:07.140Z,27.58
2022-12-20T15:24:34.864Z,22.42
2022-12-20T15:27:02.550Z,22.23
2022-12-20T15:29:30.788Z,23.77
2022-12-20T15:32:08.531Z,24.50
2022-12-20T15:34:38.989Z,23.77
2022-12-20T15:37:10.294Z,24.48
2022-12-20T15:39:40.387Z,24.92
2022-12-20T15:42:08.740Z,25.08
2022-12-20T15:44:38.503Z,26.20
2022-12-20T15:47:06.420Z,29.50
2022-12-20T15:49:34.394Z,24.37
2022-12-20T15:52:02.104Z,25.33
2022-12-20T15:54:31.658Z,20.67
2022-12-20T15:57:05.323Z,26.02
2022-12-20T15:59:59.182Z,24.25
2022-12-20T16:02:24.795Z,25.75
2022-12-20T16:04:54.343Z,24.80
2022-12-20T16:07:22.840Z,26.50
2022-12-20T16:09:50.785Z,24.05
2022-12-20T16:12:45.156Z,23.48
2022-12-20T16:15:23.768Z,20.95
2022-12-20T16:17:51.483Z,21.00
2022-12-20T16:20:19.535Z,23.85
2022-12-20T16:22:47.228Z,20.35
2022-12-20T16:25:33.791Z,25.95
2022-12-20T16:28:01.549Z,22.92
2022-12-20T16:30:29.604Z,26.25
2022-12-20T16:33:00.174Z,24.30
2022-12-20T16:35:33.909Z,21.02
2022-12-20T16:38:01.701Z,26.10
2022-12-20T16:40:31.964Z,24.40
2022-12-20T16:43:01.365Z,23.90
2022-12-20T16:45:31.261Z,26.27
2022-12-20T16:47:59.960Z,24.73
2022-12-20T16:50:29.117Z,22.60
2022-12-20T16:52:56.925Z,31.27
2022-12-20T16:55:27.228Z,27.90
2022-12-20T16:57:55.499Z,27.17
2022-12-20T17:00:26.337Z,26.58
2022-12-20T17:02:55.087Z,29.92
2022-12-20T17:05:24.595Z,28.62
2022-12-20T17:07:52.286Z,24.85
2022-12-20T17:10:20.061Z,31.35
2022-12-20T17:12:48.040Z,26.92
2022-12-20T17:15:30.852Z,25.80
2022-12-20T17:17:59.474Z,23.83
2022-12-20T17:20:30.041Z,25.10
2022-12-20T17:25:47.431Z,28.12
2022-12-20T17:28:19.763Z,29.60
2022-12-20T17:30:47.434Z,24.23
2022-12-20T17:33:16.459Z,24.55
2022-12-20T17:35:44.195Z,26.92
2022-12-20T17:38:11.861Z,26.45
2022-12-20T17:40:39.574Z,26.20
2022-12-20T17:43:09.089Z,25.95
2022-12-20T17:45:37.621Z,27.42
2022-12-20T17:48:05.931Z,34.03
2022-12-20T17:50:33.673Z,22.70
2022-12-20T17:53:01.538Z,21.35
2022-12-20T17:55:29.635Z,24.77
2022-12-20T17:57:57.697Z,22.67
2022-12-20T18:00:36.410Z,22.62
2022-12-20T18:03:06.719Z,25.52
2022-12-20T18:05:34.649Z,24.75
2022-12-20T18:08:02.410Z,25.20
2022-12-20T18:10:30.178Z,29.73
2022-12-20T18:12:57.844Z,25.62
2022-12-20T18:15:25.941Z,26.77
2022-12-20T18:17:53.740Z,25.85
2022-12-20T18:20:21.476Z,27.55
2022-12-20T18:22:49.271Z,25.85
2022-12-20T18:25:19.302Z,27.27
2022-12-20T18:27:47.146Z,29.90
2022-12-20T18:30:15.162Z,27.73
2022-12-20T18:32:42.783Z,26.12
2022-12-20T18:35:11.151Z,24.90
2022-12-20T18:37:38.883Z,28.05
2022-12-20T18:40:07.455Z,29.63
2022-12-20T18:42:35.224Z,24.92
2022-12-20T18:45:02.950Z,26.20
2022-12-20T18:47:33.511Z,25.88
2022-12-20T18:50:01.407Z,23.33
2022-12-20T18:52:29.188Z,32.58
2022-12-20T18:54:57.737Z,27.52
2022-12-20T18:57:25.447Z,27.02
2022-12-20T18:59:53.163Z,27.30
2022-12-20T19:02:21.028Z,33.08
2022-12-20T19:04:48.916Z,25.70
2022-12-20T19:07:17.307Z,29.23
2022-12-20T19:09:45.167Z,25.02
2022-12-20T19:12:12.784Z,24.35
2022-12-20T19:14:40.529Z,26.77
2022-12-20T19:17:08.353Z,25.17
2022-12-20T19:19:36.018Z,26.40
2022-12-20T19:22:03.762Z,25.73
2022-12-20T19:24:31.461Z,24.58
2022-12-20T19:26:59.151Z,28.62
2022-12-20T19:29:26.829Z,24.87
2022-12-20T19:31:54.504Z,24.23
2022-12-20T19:34:22.173Z,25.02
2022-12-20T19:36:50.145Z,28.73
2022-12-20T19:39:24.499Z,27.23
2022-12-20T19:42:23.061Z,25.08
2022-12-20T19:44:41.245Z,22.02
2022-12-20T19:47:09.040Z,27.48
2022-12-20T19:49:37.018Z,26.73
2022-12-20T19:52:06.894Z,24.92
2022-12-20T19:54:35.234Z,30.12
2022-12-20T19:57:03.017Z,29.20
2022-12-20T19:59:31.782Z,29.55
2022-12-20T20:01:59.638Z,30.48
2022-12-20T20:04:27.589Z,29.55
2022-12-20T20:06:55.418Z,27.15
2022-12-20T20:09:23.259Z,30.12
2022-12-20T20:11:50.997Z,28.25
2022-12-20T20:14:18.714Z,24.65
2022-12-20T20:16:46.480Z,24.10
2022-12-20T20:19:14.308Z,25.92
2022-12-20T20:21:42.035Z,23.98
2022-12-20T20:24:10.919Z,28.48
2022-12-20T20:26:39.103Z,27.80
2022-12-20T20:29:08.344Z,25.37
2022-12-20T20:31:36.123Z,23.83
2022-12-20T20:34:04.651Z,27.17
2022-12-20T20:36:32.409Z,29.40
2022-12-20T20:39:00.168Z,25.35
2022-12-20T20:41:27.934Z,32.38
2022-12-20T20:43:55.619Z,27.23
2022-12-20T20:46:23.893Z,26.42
2022-12-20T20:48:51.862Z,24.65
2022-12-20T20:51:19.547Z,23.87
2022-12-20T20:53:47.239Z,26.02
2022-12-20T20:56:15.100Z,28.35
2022-12-20T20:58:43.861Z,26.52
2022-12-20T21:01:12.313Z,30.98
2022-12-20T21:03:41.290Z,28.20
2022-12-20T21:08:58.523Z,27.42
2022-12-20T21:11:26.316Z,25.10
2022-12-20T21:13:54.743Z,28.70
2022-12-20T21:16:23.315Z,28.52
2022-12-20T21:18:55.775Z,28.20
2022-12-20T21:21:25.064Z,26.55
2022-12-20T21:23:56.834Z,25.73
2022-12-20T21:26:26.617Z,26.00
2022-12-20T21:29:01.244Z,28.20
2022-12-20T21:31:29.360Z,30.77
2022-12-20T21:33:57.839Z,29.12
2022-12-20T21:36:26.019Z,25.85
2022-12-20T21:38:55.997Z,26.83
2022-12-20T21:41:26.447Z,24.50
2022-12-20T21:44:01.562Z,25.52
2022-12-20T21:46:30.727Z,31.30
2022-12-20T21:48:59.942Z,29.70
2022-12-20T21:51:30.305Z,32.17
2022-12-20T21:54:00.392Z,26.30
2022-12-20T21:56:29.587Z,31.52
2022-12-20T21:58:58.563Z,27.75
2022-12-20T22:01:28.511Z,27.23
2022-12-20T22:03:59.877Z,31.92
2022-12-20T22:06:29.204Z,27.67
2022-12-20T22:09:01.739Z,33.90
2022-12-20T22:11:29.771Z,28.05
2022-12-20T22:13:58.386Z,27.48
2022-12-20T22:16:30.335Z,23.70
2022-12-20T22:18:59.842Z,32.95
2022-12-20T22:21:30.050Z,25.70
2022-12-20T22:23:59.002Z,25.85
2022-12-20T22:26:30.183Z,21.85
2022-12-20T22:29:02.338Z,24.15
2022-12-20T22:31:30.674Z,25.33
2022-12-20T22:33:59.312Z,28.08
2022-12-20T22:36:27.885Z,26.50
2022-12-20T22:38:56.830Z,22.80
2022-12-20T22:41:30.869Z,24.23
2022-12-20T22:44:00.321Z,23.45
2022-12-20T22:46:32.269Z,25.77
2022-12-20T22:49:00.718Z,25.35
2022-12-20T22:51:28.848Z,24.33
2022-12-20T22:53:58.630Z,27.23
2022-12-20T22:56:26.359Z,25.75
2022-12-20T22:58:54.441Z,23.52
2022-12-20T23:01:22.894Z,24.63
2022-12-20T23:03:51.554Z,27.13
2022-12-20T23:06:21.792Z,25.50
2022-12-20T23:08:50.042Z,22.92
2022-12-20T23:11:45.501Z,22.62
2022-12-20T23:14:34.490Z,25.90
2022-12-20T23:17:02.901Z,25.12
2022-12-20T23:19:50.734Z,22.10
2022-12-20T23:22:37.744Z,21.27
2022-12-20T23:25:07.773Z,20.10
2022-12-20T23:27:36.348Z,22.67
2022-12-20T23:30:07.068Z,24.20
2022-12-20T23:32:34.821Z,27.08
2022-12-20T23:35:08.329Z,23.42
2022-12-20T23:37:40.043Z,25.10
2022-12-20T23:40:09.102Z,20.60
2022-12-20T23:42:37.248Z,25.60
2022-12-20T23:45:05.412Z,22.33
2022-12-20T23:47:33.518Z,26.87
2022-12-20T23:50:01.142Z,24.52
2022-12-20T23:52:28.915Z,23.83
2022-12-20T23:54:56.563Z,22.80
2022-12-20T23:57:24.365Z,26.05
2022-12-20T23:59:52.021Z,26.20
